createdAt,value
2018-03-26T00:00:14.372Z,99660.45
2018-03-26T00:03:16.649Z,99649.72
2018-03-26T00:06:17.949Z,99663.22
2018-03-26T00:09:19.239Z,99651.44
2018-03-26T00:12:20.526Z,99653.45
2018-03-26T00:15:21.820Z,99659.77
2018-03-26T00:18:23.825Z,99665.06
2018-03-26T00:21:25.118Z,99656.64
2018-03-26T00:24:26.397Z,99662.67
2018-03-26T00:27:27.703Z,99655.59
2018-03-26T00:30:29.743Z,99658.64
2018-03-26T00:33:31.042Z,99663.80
2018-03-26T00:36:33.040Z,99658.86
2018-03-26T00:39:34.316Z,99652.81
2018-03-26T00:42:35.592Z,99662.08
2018-03-26T00:49:09.217Z,99659.44
2018-03-26T00:52:10.588Z,99662.27
2018-03-26T00:55:11.906Z,99669.39
2018-03-26T00:58:13.172Z,99672.69
2018-03-26T01:01:14.449Z,99673.45
2018-03-26T01:04:15.715Z,99674.72
2018-03-26T01:07:16.996Z,99675.80
2018-03-26T01:10:18.310Z,99683.36
2018-03-26T01:13:19.611Z,99683.22
2018-03-26T01:16:21.623Z,99683.95
2018-03-26T01:19:22.892Z,99685.88
2018-03-26T01:22:24.202Z,99687.05
2018-03-26T01:25:25.519Z,99698.80
2018-03-26T01:28:26.822Z,99698.52
2018-03-26T01:31:28.110Z,99695.61
2018-03-26T01:34:29.454Z,99699.41
2018-03-26T01:37:30.831Z,99701.43
2018-03-26T01:40:39.085Z,99702.02
2018-03-26T01:43:41.154Z,99714.09
2018-03-26T01:46:42.457Z,99726.53
2018-03-26T01:49:43.747Z,99733.50
2018-03-26T01:52:45.046Z,99729.16
2018-03-26T01:55:46.868Z,99732.23
2018-03-26T01:58:48.161Z,99730.41
2018-03-26T02:01:49.421Z,99726.91
2018-03-26T02:04:50.705Z,99737.41
2018-03-26T02:07:52.029Z,99741.18
2018-03-26T02:10:53.309Z,99753.82
2018-03-26T02:13:55.374Z,99750.15
2018-03-26T02:16:56.723Z,99755.69
2018-03-26T02:19:58.024Z,99748.92
2018-03-26T02:22:59.298Z,99754.47
2018-03-26T02:26:01.554Z,99752.65
2018-03-26T02:29:02.885Z,99755.63
2018-03-26T02:32:04.212Z,99745.71
2018-03-26T02:35:05.568Z,99752.78
2018-03-26T02:38:06.988Z,99751.15
2018-03-26T02:41:08.290Z,99759.06
2018-03-26T02:44:09.603Z,99757.17
2018-03-26T02:47:10.893Z,99770.02
2018-03-26T02:50:12.176Z,99766.30
2018-03-26T02:53:13.494Z,99763.63
2018-03-26T02:56:15.542Z,99770.22
2018-03-26T02:59:16.854Z,99765.62
2018-03-26T03:02:18.124Z,99779.77
2018-03-26T03:05:19.395Z,99782.86
2018-03-26T03:08:20.675Z,99784.94
2018-03-26T03:11:21.945Z,99782.82
2018-03-26T03:14:23.243Z,99789.89
2018-03-26T03:17:25.198Z,99785.91
2018-03-26T03:20:26.475Z,99786.03
2018-03-26T03:23:28.527Z,99787.69
2018-03-26T03:26:29.817Z,99778.13
2018-03-26T03:29:31.068Z,99786.64
2018-03-26T03:32:32.338Z,99797.54
2018-03-26T03:35:33.638Z,99800.03
2018-03-26T03:38:35.653Z,99798.36
2018-03-26T03:41:36.936Z,99800.88
2018-03-26T03:44:38.182Z,99796.92
2018-03-26T03:47:39.435Z,99795.00
2018-03-26T03:50:40.668Z,99801.88
2018-03-26T03:53:42.689Z,99806.45
2018-03-26T03:56:43.935Z,99799.41
2018-03-26T03:59:45.202Z,99804.98
2018-03-26T04:02:46.432Z,99806.53
2018-03-26T04:05:47.700Z,99801.19
2018-03-26T04:08:49.683Z,99816.12
2018-03-26T04:11:51.668Z,99815.52
2018-03-26T04:14:53.637Z,99811.40
2018-03-26T04:17:55.683Z,99814.16
2018-03-26T04:20:56.926Z,99812.01
2018-03-26T04:23:58.208Z,99806.25
2018-03-26T04:26:59.472Z,99812.80
2018-03-26T04:30:00.700Z,99816.96
2018-03-26T04:33:01.951Z,99807.41
2018-03-26T04:36:03.191Z,99822.41
2018-03-26T04:39:04.483Z,99823.17
2018-03-26T04:42:05.749Z,99823.02
2018-03-26T04:45:07.042Z,99823.33
2018-03-26T04:48:08.285Z,99827.30
2018-03-26T04:51:09.536Z,99829.98
2018-03-26T04:54:10.813Z,99828.95
2018-03-26T04:57:12.044Z,99831.27
2018-03-26T05:00:14.042Z,99827.64
2018-03-26T05:03:15.307Z,99831.28
2018-03-26T05:06:16.529Z,99829.05
2018-03-26T05:09:17.934Z,99835.27
2018-03-26T05:12:19.183Z,99827.17
2018-03-26T05:15:21.174Z,99836.20
2018-03-26T05:18:22.408Z,99836.73
2018-03-26T05:21:23.673Z,99837.34
2018-03-26T05:24:24.946Z,99837.34
2018-03-26T05:27:26.944Z,99846.53
2018-03-26T05:30:28.271Z,99849.48
2018-03-26T05:33:29.526Z,99861.09
2018-03-26T05:36:30.832Z,99856.72
2018-03-26T05:39:32.828Z,99863.20
2018-03-26T05:42:34.102Z,99867.72
2018-03-26T05:45:35.356Z,99858.52
2018-03-26T05:48:36.610Z,99879.16
2018-03-26T05:51:37.863Z,99887.23
2018-03-26T05:54:39.840Z,99888.98
2018-03-26T05:57:41.826Z,99889.84
2018-03-26T06:00:43.830Z,99887.78
2018-03-26T06:03:45.132Z,99896.84
2018-03-26T06:06:53.431Z,99906.54
2018-03-26T06:09:54.703Z,99902.30
2018-03-26T06:12:55.951Z,99909.80
2018-03-26T06:15:57.199Z,99912.58
2018-03-26T06:18:58.493Z,99919.25
2018-03-26T06:21:59.810Z,99918.86
2018-03-26T06:25:01.805Z,99923.49
2018-03-26T06:28:03.102Z,99917.08
2018-03-26T06:31:04.383Z,99920.47
2018-03-26T06:34:05.679Z,99932.23
2018-03-26T06:37:13.773Z,99933.33
2018-03-26T06:40:15.052Z,99935.71
2018-03-26T06:43:16.420Z,99940.86
2018-03-26T06:46:17.707Z,99935.20
2018-03-26T06:49:19.750Z,99943.89
2018-03-26T06:52:21.012Z,99953.80
2018-03-26T06:55:22.267Z,99961.42
2018-03-26T06:58:23.523Z,99956.24
2018-03-26T07:01:24.811Z,99958.69
2018-03-26T07:04:26.174Z,99962.93
2018-03-26T07:07:27.432Z,99964.52
2018-03-26T07:10:28.717Z,99963.66
2018-03-26T07:13:30.703Z,99970.72
2018-03-26T07:16:32.749Z,99978.14
2018-03-26T07:19:34.067Z,99967.30
2018-03-26T07:22:35.329Z,99976.02
2018-03-26T07:25:36.571Z,99971.88
2018-03-26T07:28:37.842Z,99981.03
2018-03-26T07:31:39.812Z,99986.11
2018-03-26T07:34:41.159Z,99983.55
2018-03-26T07:37:42.421Z,99987.55
2018-03-26T07:40:43.734Z,99996.48
2018-03-26T07:43:45.022Z,99996.72
2018-03-26T07:46:46.283Z,99991.95
2018-03-26T07:49:47.515Z,99990.03
2018-03-26T07:52:48.784Z,99992.25
2018-03-26T07:55:50.078Z,99998.09
2018-03-26T07:58:51.327Z,99993.58
2018-03-26T08:01:52.566Z,100004.88
2018-03-26T08:04:54.616Z,99998.59
2018-03-26T08:07:55.851Z,100005.98
2018-03-26T08:10:57.149Z,100011.57
2018-03-26T08:13:58.509Z,100009.50
2018-03-26T08:16:59.779Z,100012.94
2018-03-26T08:20:01.012Z,100011.25
2018-03-26T08:23:02.358Z,100025.08
2018-03-26T08:26:03.618Z,100022.81
2018-03-26T08:29:04.923Z,100029.35
2018-03-26T08:32:06.154Z,100025.20
2018-03-26T08:35:07.409Z,100025.91
2018-03-26T08:38:08.678Z,100032.86
2018-03-26T08:41:09.982Z,100038.52
2018-03-26T08:44:11.234Z,100038.19
2018-03-26T08:47:12.490Z,100033.39
2018-03-26T08:50:13.754Z,100031.59
2018-03-26T08:53:15.003Z,100020.36
2018-03-26T08:56:16.331Z,100020.69
2018-03-26T08:59:18.330Z,100024.36
2018-03-26T09:02:19.574Z,100023.00
2018-03-26T09:05:21.143Z,100015.20
2018-03-26T09:08:23.110Z,100024.72
2018-03-26T09:11:25.102Z,100031.98
2018-03-26T09:14:27.111Z,100029.02
2018-03-26T09:17:28.460Z,100028.27
2018-03-26T09:20:29.669Z,100029.84
2018-03-26T09:23:31.034Z,100033.69
2018-03-26T09:26:33.035Z,100027.39
2018-03-26T09:29:34.326Z,100030.09
2018-03-26T09:32:35.536Z,100028.09
2018-03-26T09:35:36.815Z,100019.53
2018-03-26T09:38:38.071Z,100019.95
2018-03-26T09:41:39.338Z,100037.64
2018-03-26T09:44:40.599Z,100023.92
2018-03-26T09:47:41.896Z,100025.23
2018-03-26T09:50:43.901Z,100030.67
2018-03-26T09:53:45.254Z,100027.42
2018-03-26T09:56:46.503Z,100031.53
2018-03-26T09:59:48.522Z,100025.68
2018-03-26T10:02:49.756Z,100028.13
2018-03-26T10:05:51.033Z,100028.78
2018-03-26T10:08:52.355Z,100037.05
2018-03-26T10:11:53.624Z,100041.55
2018-03-26T10:14:54.867Z,100040.95
2018-03-26T10:17:56.119Z,100032.41
2018-03-26T10:20:57.394Z,100027.56
2018-03-26T10:23:58.624Z,100036.64
2018-03-26T10:26:59.891Z,100036.69
2018-03-26T10:30:01.972Z,100046.05
2018-03-26T10:33:03.239Z,100052.83
2018-03-26T10:36:04.519Z,100037.17
2018-03-26T10:39:05.871Z,100046.51
2018-03-26T10:42:07.108Z,100042.90
2018-03-26T10:45:08.380Z,100052.31
2018-03-26T10:48:09.631Z,100040.41
2018-03-26T10:51:10.860Z,100037.05
2018-03-26T10:54:12.143Z,100042.54
2018-03-26T10:57:14.162Z,100038.19
2018-03-26T11:00:15.420Z,100040.00
2018-03-26T11:03:23.666Z,100043.84
2018-03-26T11:06:24.924Z,100038.75
2018-03-26T11:09:26.204Z,100040.15
2018-03-26T11:12:27.506Z,100039.86
2018-03-26T11:15:29.501Z,100041.88
2018-03-26T11:18:30.761Z,100050.59
2018-03-26T11:21:32.778Z,100039.61
2018-03-26T11:24:34.081Z,100041.56
2018-03-26T11:27:35.342Z,100039.18
2018-03-26T11:30:36.607Z,100043.68
2018-03-26T11:33:37.840Z,100042.50
2018-03-26T11:36:39.117Z,100048.16
2018-03-26T11:39:40.434Z,100050.21
2018-03-26T11:42:41.734Z,100043.00
2018-03-26T11:45:43.000Z,100042.31
2018-03-26T11:48:44.275Z,100043.55
2018-03-26T11:51:45.525Z,100040.95
2018-03-26T11:54:46.775Z,100047.83
2018-03-26T11:57:48.026Z,100040.97
2018-03-26T12:00:49.287Z,100051.23
2018-03-26T12:03:50.523Z,100049.01
2018-03-26T12:06:52.551Z,100043.35
2018-03-26T12:09:53.797Z,100052.09
2018-03-26T12:12:55.053Z,100054.56
2018-03-26T12:15:56.281Z,100046.64
2018-03-26T12:18:58.303Z,100054.88
2018-03-26T12:21:59.551Z,100048.54
2018-03-26T12:25:11.622Z,100042.90
2018-03-26T12:28:31.313Z,100040.44
2018-03-26T12:31:32.577Z,100042.41
2018-03-26T12:34:52.511Z,100042.12
2018-03-26T12:37:54.502Z,100049.78
2018-03-26T12:40:56.610Z,100048.34
2018-03-26T12:43:57.878Z,100049.04
2018-03-26T12:46:59.198Z,100039.41
2018-03-26T12:50:01.202Z,100050.63
2018-03-26T12:53:02.478Z,100044.98
2018-03-26T12:56:03.751Z,100047.67
2018-03-26T12:59:05.013Z,100045.66
2018-03-26T13:02:19.578Z,100051.28
2018-03-26T13:05:20.867Z,100044.67
2018-03-26T13:08:22.151Z,100049.79
2018-03-26T13:11:23.438Z,100049.95
2018-03-26T13:14:25.456Z,100047.13
2018-03-26T13:17:26.686Z,100057.39
2018-03-26T13:20:28.677Z,100048.20
2018-03-26T13:23:29.918Z,100051.78
2018-03-26T13:26:31.930Z,100049.25
2018-03-26T13:29:33.183Z,100048.73
2018-03-26T13:32:34.428Z,100049.98
2018-03-26T13:35:36.403Z,100054.63
2018-03-26T13:38:37.685Z,100062.34
2018-03-26T13:41:45.892Z,100055.68
2018-03-26T13:44:47.159Z,100057.45
2018-03-26T13:47:56.102Z,100054.16
2018-03-26T13:50:58.072Z,100056.20
2018-03-26T13:53:59.324Z,100053.33
2018-03-26T13:57:00.554Z,100053.58
2018-03-26T14:00:01.828Z,100046.95
2018-03-26T14:03:03.119Z,100053.45
2018-03-26T14:06:04.395Z,100047.58
2018-03-26T14:09:24.127Z,100048.96
2018-03-26T14:12:43.983Z,100054.84
2018-03-26T14:16:03.711Z,100056.96
2018-03-26T14:19:04.978Z,100061.34
2018-03-26T14:22:06.251Z,100058.77
2018-03-26T14:25:07.503Z,100071.08
2018-03-26T14:28:08.758Z,100062.02
2018-03-26T14:31:10.731Z,100066.86
2018-03-26T14:34:12.727Z,100064.02
2018-03-26T14:37:13.984Z,100063.27
2018-03-26T14:40:15.991Z,100062.88
2018-03-26T14:43:17.311Z,100070.71
2018-03-26T14:46:18.937Z,100061.11
2018-03-26T14:49:20.353Z,100064.01
2018-03-26T14:52:21.712Z,100059.66
2018-03-26T14:55:23.004Z,100060.98
2018-03-26T14:58:24.318Z,100067.19
2018-03-26T15:01:25.568Z,100062.02
2018-03-26T15:04:26.831Z,100069.39
2018-03-26T15:07:28.118Z,100055.30
2018-03-26T15:10:29.390Z,100064.80
2018-03-26T15:13:30.671Z,100059.73
2018-03-26T15:16:32.686Z,100070.05
2018-03-26T15:19:33.934Z,100078.95
2018-03-26T15:22:35.180Z,100069.44
2018-03-26T15:25:37.199Z,100076.91
2018-03-26T15:28:38.463Z,100072.01
2018-03-26T15:31:39.715Z,100066.98
2018-03-26T15:34:40.968Z,100080.77
2018-03-26T15:37:42.203Z,100071.37
2018-03-26T15:40:44.212Z,100077.95
2018-03-26T15:47:15.444Z,100074.81
2018-03-26T15:50:16.684Z,100067.99
2018-03-26T15:53:17.928Z,100071.55
2018-03-26T15:56:19.939Z,100071.61
2018-03-26T15:59:21.212Z,100074.00
2018-03-26T16:02:22.510Z,100077.93
2018-03-26T16:05:23.756Z,100073.14
2018-03-26T16:08:25.034Z,100080.80
2018-03-26T16:11:26.283Z,100082.73
2018-03-26T16:14:27.524Z,100084.69
2018-03-26T16:17:28.777Z,100081.20
2018-03-26T16:20:30.029Z,100086.69
2018-03-26T16:23:31.296Z,100085.94
2018-03-26T16:26:32.619Z,100082.04
2018-03-26T16:29:33.928Z,100090.98
2018-03-26T16:32:35.141Z,100089.98
2018-03-26T16:35:36.386Z,100090.60
2018-03-26T16:38:37.644Z,100098.14
2018-03-26T16:41:45.929Z,100096.85
2018-03-26T16:44:47.248Z,100087.48
2018-03-26T16:47:48.505Z,100092.52
2018-03-26T16:50:49.804Z,100086.08
2018-03-26T16:53:51.840Z,100094.45
2018-03-26T16:56:53.130Z,100097.29
2018-03-26T16:59:54.403Z,100092.55
2018-03-26T17:02:55.669Z,100099.30
2018-03-26T17:05:58.439Z,100095.66
2018-03-26T17:09:00.974Z,100099.61
2018-03-26T17:12:02.355Z,100098.81
2018-03-26T17:15:04.315Z,100107.30
2018-03-26T17:18:06.864Z,100090.18
2018-03-26T17:21:08.341Z,100099.83
2018-03-26T17:24:10.083Z,100095.11
2018-03-26T17:27:11.406Z,100103.65
2018-03-26T17:30:13.197Z,100097.91
2018-03-26T17:33:14.472Z,100093.38
2018-03-26T17:36:15.727Z,100093.77
2018-03-26T17:39:17.719Z,100093.42
2018-03-26T17:42:18.959Z,100098.53
2018-03-26T17:45:21.442Z,100098.98
2018-03-26T17:48:22.743Z,100104.77
2018-03-26T17:51:24.274Z,100100.56
2018-03-26T17:54:25.590Z,100099.19
2018-03-26T17:57:26.818Z,100092.28
2018-03-26T18:00:29.303Z,100103.44
2018-03-26T18:03:30.665Z,100106.83
2018-03-26T18:06:31.904Z,100098.89
2018-03-26T18:09:33.182Z,100107.31
2018-03-26T18:12:34.504Z,100111.00
2018-03-26T18:15:35.753Z,100102.53
2018-03-26T18:18:37.056Z,100115.76
2018-03-26T18:21:38.598Z,100116.22
2018-03-26T18:24:41.124Z,100117.97
2018-03-26T18:27:42.674Z,100117.24
2018-03-26T18:30:44.975Z,100120.83
2018-03-26T18:33:46.767Z,100117.12
2018-03-26T18:36:48.103Z,100114.49
2018-03-26T18:39:49.899Z,100107.31
2018-03-26T18:42:51.215Z,100107.45
2018-03-26T18:45:53.690Z,100109.33
2018-03-26T18:48:56.227Z,100111.34
2018-03-26T18:51:58.111Z,100112.69
2018-03-26T18:54:59.488Z,100103.09
2018-03-26T18:58:01.365Z,100106.49
2018-03-26T19:01:03.378Z,100100.70
2018-03-26T19:04:06.035Z,100102.80
2018-03-26T19:07:07.755Z,100108.54
2018-03-26T19:10:09.067Z,100109.00
2018-03-26T19:13:10.714Z,100110.22
2018-03-26T19:16:12.769Z,100106.98
2018-03-26T19:19:15.098Z,100116.06
2018-03-26T19:22:16.819Z,100116.09
2018-03-26T19:25:18.131Z,100123.41
2018-03-26T19:28:19.507Z,100110.63
2018-03-26T19:31:21.391Z,100111.52
2018-03-26T19:34:23.144Z,100103.41
2018-03-26T19:37:24.399Z,100105.34
2018-03-26T19:40:26.187Z,100112.88
2018-03-26T19:43:27.781Z,100117.64
2018-03-26T19:46:29.055Z,100118.70
2018-03-26T19:49:30.959Z,100124.53
2018-03-26T19:52:32.651Z,100120.17
2018-03-26T19:55:34.531Z,100123.67
2018-03-26T19:58:35.949Z,100119.43
2018-03-26T20:01:37.728Z,100116.28
2018-03-26T20:04:38.986Z,100121.23
2018-03-26T20:07:40.765Z,100111.76
2018-03-26T20:10:42.849Z,100112.64
2018-03-26T20:13:44.549Z,100122.16
2018-03-26T20:16:46.314Z,100125.19
2018-03-26T20:19:48.206Z,100119.08
2018-03-26T20:22:51.117Z,100127.40
2018-03-26T20:25:52.515Z,100140.80
2018-03-26T20:28:54.313Z,100143.19
2018-03-26T20:31:56.363Z,100145.87
2018-03-26T20:34:57.642Z,100151.00
2018-03-26T20:38:00.157Z,100154.85
2018-03-26T20:41:01.792Z,100167.47
2018-03-26T20:44:03.271Z,100168.81
2018-03-26T20:47:04.862Z,100175.06
2018-03-26T20:50:06.263Z,100191.58
2018-03-26T20:53:08.819Z,100194.81
2018-03-26T20:56:10.634Z,100206.91
2018-03-26T20:59:11.919Z,100200.01
2018-03-26T21:02:13.241Z,100196.20
2018-03-26T21:05:14.583Z,100195.25
2018-03-26T21:08:17.539Z,100187.38
2018-03-26T21:11:19.015Z,100183.02
2018-03-26T21:14:20.719Z,100177.84
2018-03-26T21:17:22.132Z,100168.28
2018-03-26T21:20:24.197Z,100171.95
2018-03-26T21:23:25.489Z,100166.94
2018-03-26T21:26:27.584Z,100163.84
2018-03-26T21:29:28.919Z,100157.58
2018-03-26T21:32:30.195Z,100145.91
2018-03-26T21:35:32.235Z,100150.91
2018-03-26T21:38:33.534Z,100152.59
2018-03-26T21:41:34.842Z,100155.58
2018-03-26T21:44:36.225Z,100152.37
2018-03-26T21:47:37.478Z,100142.37
2018-03-26T21:50:38.809Z,100144.59
2018-03-26T21:53:40.882Z,100140.70
2018-03-26T21:56:42.155Z,100136.64
2018-03-26T21:59:44.237Z,100141.18
2018-03-26T22:02:46.317Z,100128.02
2018-03-26T22:05:48.310Z,100126.21
2018-03-26T22:08:49.562Z,100122.31
2018-03-26T22:11:51.563Z,100124.94
2018-03-26T22:14:52.819Z,100122.39
2018-03-26T22:17:54.066Z,100123.39
2018-03-26T22:20:56.059Z,100127.02
2018-03-26T22:23:57.342Z,100119.55
2018-03-26T22:26:58.592Z,100106.59
2018-03-26T22:29:59.918Z,100113.89
2018-03-26T22:33:01.277Z,100117.44
2018-03-26T22:36:02.579Z,100116.50
2018-03-26T22:39:04.578Z,100118.75
2018-03-26T22:42:05.828Z,100126.88
2018-03-26T22:45:07.075Z,100115.63
2018-03-26T22:48:08.367Z,100122.16
2018-03-26T22:51:09.648Z,100119.09
2018-03-26T22:54:10.942Z,100117.27
2018-03-26T22:57:12.198Z,100106.05
2018-03-26T23:00:13.503Z,100111.81
2018-03-26T23:03:14.774Z,100114.44
2018-03-26T23:06:16.034Z,100113.64
2018-03-26T23:09:17.293Z,100119.36
2018-03-26T23:12:18.562Z,100121.48
2018-03-26T23:15:19.802Z,100112.06
2018-03-26T23:18:21.807Z,100112.83
2018-03-26T23:21:23.060Z,100111.44
2018-03-26T23:24:24.338Z,100104.05
2018-03-26T23:27:25.634Z,100101.04
2018-03-26T23:30:26.914Z,100095.88
2018-03-26T23:33:28.172Z,100089.78
2018-03-26T23:36:29.411Z,100093.63
2018-03-26T23:39:30.715Z,100097.70
2018-03-26T23:42:31.981Z,100099.45
2018-03-26T23:45:33.233Z,100102.09
2018-03-26T23:48:34.506Z,100099.62
2018-03-26T23:51:35.791Z,100098.58
2018-03-26T23:54:37.815Z,100097.43
2018-03-26T23:57:39.109Z,100098.24
